sensor_id;sensor_type;location;lat;lon;timestamp;P1;durP1;ratioP1;P2;durP2;ratioP2
50126;SDS011;36024;47.974;16.398;2023-02-01T00:02:10;1.20;;;1.00;;
50126;SDS011;36024;47.974;16.398;2023-02-01T00:04:37;1.20;;;0.90;;
50126;SDS011;36024;47.974;16.398;2023-02-01T00:07:03;1.10;;;0.90;;
50126;SDS011;36024;47.974;16.398;2023-02-01T00:09:30;0.80;;;0.80;;
50126;SDS011;36024;47.974;16.398;2023-02-01T00:11:57;1.07;;;0.90;;
50126;SDS011;36024;47.974;16.398;2023-02-01T00:14:25;1.00;;;1.00;;
50126;SDS011;36024;47.974;16.398;2023-02-01T00:16:52;1.53;;;1.23;;
50126;SDS011;36024;47.974;16.398;2023-02-01T00:19:18;1.67;;;1.20;;
50126;SDS011;36024;47.974;16.398;2023-02-01T00:21:45;1.20;;;1.10;;
50126;SDS011;36024;47.974;16.398;2023-02-01T00:24:12;1.90;;;1.53;;
50126;SDS011;36024;47.974;16.398;2023-02-01T00:26:40;1.80;;;1.13;;
50126;SDS011;36024;47.974;16.398;2023-02-01T00:29:15;1.60;;;1.10;;
50126;SDS011;36024;47.974;16.398;2023-02-01T00:31:43;1.33;;;1.10;;
50126;SDS011;36024;47.974;16.398;2023-02-01T00:34:11;1.40;;;1.30;;
50126;SDS011;36024;47.974;16.398;2023-02-01T00:36:39;1.93;;;1.30;;
50126;SDS011;36024;47.974;16.398;2023-02-01T00:39:07;1.70;;;1.33;;
50126;SDS011;36024;47.974;16.398;2023-02-01T00:41:33;2.20;;;1.40;;
50126;SDS011;36024;47.974;16.398;2023-02-01T00:44:00;1.40;;;1.30;;
50126;SDS011;36024;47.974;16.398;2023-02-01T00:46:28;2.40;;;1.40;;
50126;SDS011;36024;47.974;16.398;2023-02-01T00:48:55;1.60;;;1.40;;
50126;SDS011;36024;47.974;16.398;2023-02-01T00:51:23;1.43;;;1.33;;
50126;SDS011;36024;47.974;16.398;2023-02-01T00:53:52;2.10;;;1.63;;
50126;SDS011;36024;47.974;16.398;2023-02-01T00:56:19;1.70;;;1.60;;
50126;SDS011;36024;47.974;16.398;2023-02-01T00:58:46;3.27;;;1.57;;
50126;SDS011;36024;47.974;16.398;2023-02-01T01:01:14;1.63;;;1.50;;
50126;SDS011;36024;47.974;16.398;2023-02-01T01:03:44;1.70;;;1.60;;
50126;SDS011;36024;47.974;16.398;2023-02-01T01:06:13;1.60;;;1.50;;
50126;SDS011;36024;47.974;16.398;2023-02-01T01:08:41;1.63;;;1.50;;
50126;SDS011;36024;47.974;16.398;2023-02-01T01:11:09;1.80;;;1.70;;
50126;SDS011;36024;47.974;16.398;2023-02-01T01:13:37;2.00;;;1.60;;
50126;SDS011;36024;47.974;16.398;2023-02-01T01:16:06;2.40;;;1.70;;
50126;SDS011;36024;47.974;16.398;2023-02-01T01:18:34;2.10;;;1.30;;
50126;SDS011;36024;47.974;16.398;2023-02-01T01:21:01;1.70;;;1.30;;
50126;SDS011;36024;47.974;16.398;2023-02-01T01:23:28;1.63;;;1.50;;
50126;SDS011;36024;47.974;16.398;2023-02-01T01:25:55;2.33;;;1.50;;
50126;SDS011;36024;47.974;16.398;2023-02-01T01:28:21;1.37;;;1.27;;
50126;SDS011;36024;47.974;16.398;2023-02-01T01:30:48;1.40;;;1.17;;
50126;SDS011;36024;47.974;16.398;2023-02-01T01:33:15;1.43;;;1.20;;
50126;SDS011;36024;47.974;16.398;2023-02-01T01:35:42;1.57;;;1.17;;
50126;SDS011;36024;47.974;16.398;2023-02-01T01:38:09;1.57;;;1.20;;
50126;SDS011;36024;47.974;16.398;2023-02-01T01:40:37;1.13;;;1.03;;
50126;SDS011;36024;47.974;16.398;2023-02-01T01:43:09;1.27;;;1.17;;
50126;SDS011;36024;47.974;16.398;2023-02-01T01:45:38;1.67;;;1.10;;
50126;SDS011;36024;47.974;16.398;2023-02-01T01:48:16;1.10;;;1.00;;
50126;SDS011;36024;47.974;16.398;2023-02-01T01:50:49;1.57;;;1.10;;
50126;SDS011;36024;47.974;16.398;2023-02-01T01:53:20;2.20;;;1.10;;
50126;SDS011;36024;47.974;16.398;2023-02-01T01:55:53;1.10;;;1.00;;
50126;SDS011;36024;47.974;16.398;2023-02-01T01:58:23;1.20;;;1.10;;
50126;SDS011;36024;47.974;16.398;2023-02-01T02:00:53;1.90;;;1.00;;
50126;SDS011;36024;47.974;16.398;2023-02-01T02:03:21;1.57;;;0.90;;
50126;SDS011;36024;47.974;16.398;2023-02-01T02:05:50;1.20;;;1.10;;
50126;SDS011;36024;47.974;16.398;2023-02-01T02:08:18;0.67;;;0.67;;
50126;SDS011;36024;47.974;16.398;2023-02-01T02:10:47;1.10;;;1.00;;
50126;SDS011;36024;47.974;16.398;2023-02-01T02:27:50;0.80;;;0.80;;
50126;SDS011;36024;47.974;16.398;2023-02-01T02:41:27;0.80;;;0.77;;
50126;SDS011;36024;47.974;16.398;2023-02-01T02:47:24;0.80;;;0.80;;
50126;SDS011;36024;47.974;16.398;2023-02-01T02:50:03;1.57;;;1.07;;
50126;SDS011;36024;47.974;16.398;2023-02-01T02:52:52;1.33;;;1.10;;
50126;SDS011;36024;47.974;16.398;2023-02-01T02:55:44;1.00;;;0.97;;
50126;SDS011;36024;47.974;16.398;2023-02-01T02:58:11;1.00;;;0.80;;
50126;SDS011;36024;47.974;16.398;2023-02-01T03:00:58;1.30;;;1.20;;
50126;SDS011;36024;47.974;16.398;2023-02-01T03:03:43;2.63;;;1.03;;
50126;SDS011;36024;47.974;16.398;2023-02-01T03:06:30;1.20;;;1.10;;
50126;SDS011;36024;47.974;16.398;2023-02-01T03:08:58;1.20;;;1.10;;
50126;SDS011;36024;47.974;16.398;2023-02-01T03:11:28;1.27;;;1.17;;
50126;SDS011;36024;47.974;16.398;2023-02-01T03:14:16;1.67;;;1.20;;
50126;SDS011;36024;47.974;16.398;2023-02-01T03:16:46;2.37;;;1.30;;
50126;SDS011;36024;47.974;16.398;2023-02-01T03:22:02;1.63;;;1.43;;
50126;SDS011;36024;47.974;16.398;2023-02-01T03:24:47;2.03;;;1.50;;
50126;SDS011;36024;47.974;16.398;2023-02-01T03:27:21;4.20;;;1.53;;
50126;SDS011;36024;47.974;16.398;2023-02-01T03:29:54;1.60;;;1.50;;
50126;SDS011;36024;47.974;16.398;2023-02-01T03:32:25;1.97;;;1.67;;
50126;SDS011;36024;47.974;16.398;2023-02-01T03:34:52;1.87;;;1.63;;
50126;SDS011;36024;47.974;16.398;2023-02-01T03:37:24;1.90;;;1.47;;
50126;SDS011;36024;47.974;16.398;2023-02-01T03:40:26;1.90;;;1.50;;
50126;SDS011;36024;47.974;16.398;2023-02-01T03:42:48;2.87;;;1.70;;
50126;SDS011;36024;47.974;16.398;2023-02-01T03:45:18;2.13;;;1.60;;
50126;SDS011;36024;47.974;16.398;2023-02-01T03:47:50;2.37;;;1.40;;
50126;SDS011;36024;47.974;16.398;2023-02-01T03:50:20;2.83;;;1.67;;
50126;SDS011;36024;47.974;16.398;2023-02-01T03:53:02;3.40;;;1.70;;
50126;SDS011;36024;47.974;16.398;2023-02-01T03:55:31;1.90;;;1.70;;
50126;SDS011;36024;47.974;16.398;2023-02-01T03:58:09;1.77;;;1.67;;
50126;SDS011;36024;47.974;16.398;2023-02-01T04:00:45;1.77;;;1.67;;
50126;SDS011;36024;47.974;16.398;2023-02-01T04:03:16;2.20;;;1.97;;
50126;SDS011;36024;47.974;16.398;2023-02-01T04:05:44;2.00;;;1.80;;
50126;SDS011;36024;47.974;16.398;2023-02-01T04:08:11;2.83;;;2.07;;
50126;SDS011;36024;47.974;16.398;2023-02-01T04:10:37;2.73;;;2.10;;
50126;SDS011;36024;47.974;16.398;2023-02-01T04:13:04;2.73;;;2.00;;
50126;SDS011;36024;47.974;16.398;2023-02-01T04:15:30;3.70;;;2.37;;
50126;SDS011;36024;47.974;16.398;2023-02-01T04:17:57;2.73;;;2.20;;
50126;SDS011;36024;47.974;16.398;2023-02-01T04:20:24;1.70;;;1.60;;
50126;SDS011;36024;47.974;16.398;2023-02-01T04:22:51;2.20;;;1.87;;
50126;SDS011;36024;47.974;16.398;2023-02-01T04:25:18;2.43;;;2.00;;
50126;SDS011;36024;47.974;16.398;2023-02-01T04:27:45;2.70;;;2.07;;
50126;SDS011;36024;47.974;16.398;2023-02-01T04:30:12;2.63;;;2.00;;
50126;SDS011;36024;47.974;16.398;2023-02-01T04:32:39;1.70;;;1.60;;
50126;SDS011;36024;47.974;16.398;2023-02-01T04:35:06;3.00;;;2.07;;
50126;SDS011;36024;47.974;16.398;2023-02-01T04:37:33;2.30;;;1.80;;
50126;SDS011;36024;47.974;16.398;2023-02-01T04:40:00;2.33;;;2.00;;
50126;SDS011;36024;47.974;16.398;2023-02-01T04:42:29;2.33;;;2.03;;
50126;SDS011;36024;47.974;16.398;2023-02-01T04:44:56;1.90;;;1.80;;
50126;SDS011;36024;47.974;16.398;2023-02-01T04:47:23;2.03;;;1.83;;
50126;SDS011;36024;47.974;16.398;2023-02-01T04:49:49;1.77;;;1.67;;
50126;SDS011;36024;47.974;16.398;2023-02-01T04:52:16;2.20;;;1.70;;
50126;SDS011;36024;47.974;16.398;2023-02-01T04:54:42;1.50;;;1.40;;
50126;SDS011;36024;47.974;16.398;2023-02-01T04:57:09;1.80;;;1.70;;
50126;SDS011;36024;47.974;16.398;2023-02-01T04:59:36;1.70;;;1.60;;
50126;SDS011;36024;47.974;16.398;2023-02-01T05:02:02;1.50;;;1.40;;
50126;SDS011;36024;47.974;16.398;2023-02-01T05:04:29;1.50;;;1.40;;
50126;SDS011;36024;47.974;16.398;2023-02-01T05:06:55;2.17;;;1.47;;
50126;SDS011;36024;47.974;16.398;2023-02-01T05:09:22;1.40;;;1.30;;
50126;SDS011;36024;47.974;16.398;2023-02-01T05:11:49;1.60;;;1.40;;
50126;SDS011;36024;47.974;16.398;2023-02-01T05:14:34;1.50;;;1.40;;
50126;SDS011;36024;47.974;16.398;2023-02-01T05:17:00;1.37;;;1.27;;
50126;SDS011;36024;47.974;16.398;2023-02-01T05:19:27;1.80;;;1.63;;
50126;SDS011;36024;47.974;16.398;2023-02-01T05:21:54;1.83;;;1.50;;
50126;SDS011;36024;47.974;16.398;2023-02-01T05:24:20;2.07;;;1.83;;
50126;SDS011;36024;47.974;16.398;2023-02-01T05:26:47;2.10;;;1.90;;
50126;SDS011;36024;47.974;16.398;2023-02-01T05:29:15;2.57;;;1.93;;
50126;SDS011;36024;47.974;16.398;2023-02-01T05:31:46;2.70;;;1.77;;
50126;SDS011;36024;47.974;16.398;2023-02-01T05:34:14;2.70;;;1.90;;
50126;SDS011;36024;47.974;16.398;2023-02-01T05:36:41;2.80;;;1.63;;
50126;SDS011;36024;47.974;16.398;2023-02-01T05:39:08;1.83;;;1.63;;
50126;SDS011;36024;47.974;16.398;2023-02-01T05:41:34;1.80;;;1.60;;
50126;SDS011;36024;47.974;16.398;2023-02-01T05:44:01;1.70;;;1.60;;
50126;SDS011;36024;47.974;16.398;2023-02-01T05:46:29;1.97;;;1.70;;
50126;SDS011;36024;47.974;16.398;2023-02-01T05:48:55;2.00;;;1.67;;
50126;SDS011;36024;47.974;16.398;2023-02-01T05:51:22;1.97;;;1.70;;
50126;SDS011;36024;47.974;16.398;2023-02-01T05:53:48;1.80;;;1.70;;
50126;SDS011;36024;47.974;16.398;2023-02-01T05:56:15;1.70;;;1.60;;
50126;SDS011;36024;47.974;16.398;2023-02-01T05:58:42;2.17;;;1.67;;
50126;SDS011;36024;47.974;16.398;2023-02-01T06:01:08;2.27;;;2.00;;
50126;SDS011;36024;47.974;16.398;2023-02-01T06:03:35;2.10;;;1.97;;
50126;SDS011;36024;47.974;16.398;2023-02-01T06:06:02;2.67;;;2.47;;
50126;SDS011;36024;47.974;16.398;2023-02-01T06:08:29;2.40;;;1.93;;
50126;SDS011;36024;47.974;16.398;2023-02-01T06:11:03;3.10;;;2.00;;
50126;SDS011;36024;47.974;16.398;2023-02-01T06:13:31;2.00;;;1.80;;
50126;SDS011;36024;47.974;16.398;2023-02-01T06:16:00;1.90;;;1.77;;
50126;SDS011;36024;47.974;16.398;2023-02-01T06:18:29;2.43;;;2.20;;
50126;SDS011;36024;47.974;16.398;2023-02-01T06:20:57;2.37;;;2.00;;
50126;SDS011;36024;47.974;16.398;2023-02-01T06:23:26;2.37;;;1.80;;
50126;SDS011;36024;47.974;16.398;2023-02-01T06:25:58;2.23;;;1.77;;
50126;SDS011;36024;47.974;16.398;2023-02-01T06:28:28;2.00;;;1.90;;
50126;SDS011;36024;47.974;16.398;2023-02-01T06:30:55;2.60;;;2.30;;
50126;SDS011;36024;47.974;16.398;2023-02-01T06:33:24;2.37;;;2.00;;
50126;SDS011;36024;47.974;16.398;2023-02-01T06:35:58;2.67;;;2.00;;
50126;SDS011;36024;47.974;16.398;2023-02-01T06:38:26;2.50;;;2.10;;
50126;SDS011;36024;47.974;16.398;2023-02-01T06:40:53;3.33;;;2.00;;
50126;SDS011;36024;47.974;16.398;2023-02-01T06:43:22;3.50;;;2.20;;
50126;SDS011;36024;47.974;16.398;2023-02-01T06:45:50;1.77;;;1.63;;
50126;SDS011;36024;47.974;16.398;2023-02-01T06:48:17;2.93;;;2.13;;
50126;SDS011;36024;47.974;16.398;2023-02-01T06:50:45;2.20;;;1.90;;
50126;SDS011;36024;47.974;16.398;2023-02-01T06:53:12;2.07;;;1.87;;
50126;SDS011;36024;47.974;16.398;2023-02-01T06:55:39;2.10;;;1.90;;
50126;SDS011;36024;47.974;16.398;2023-02-01T06:58:06;2.07;;;1.83;;
50126;SDS011;36024;47.974;16.398;2023-02-01T07:00:33;1.97;;;1.73;;
50126;SDS011;36024;47.974;16.398;2023-02-01T07:03:00;2.33;;;2.10;;
50126;SDS011;36024;47.974;16.398;2023-02-01T07:05:27;2.70;;;2.50;;
50126;SDS011;36024;47.974;16.398;2023-02-01T07:07:54;2.50;;;2.10;;
50126;SDS011;36024;47.974;16.398;2023-02-01T07:10:20;2.57;;;1.90;;
50126;SDS011;36024;47.974;16.398;2023-02-01T07:12:48;2.60;;;2.20;;
50126;SDS011;36024;47.974;16.398;2023-02-01T07:15:15;2.43;;;1.83;;
50126;SDS011;36024;47.974;16.398;2023-02-01T07:17:42;2.07;;;1.87;;
50126;SDS011;36024;47.974;16.398;2023-02-01T07:20:08;2.03;;;1.73;;
50126;SDS011;36024;47.974;16.398;2023-02-01T07:22:35;2.17;;;1.80;;
50126;SDS011;36024;47.974;16.398;2023-02-01T07:25:02;3.97;;;2.10;;
50126;SDS011;36024;47.974;16.398;2023-02-01T07:27:33;1.93;;;1.77;;
50126;SDS011;36024;47.974;16.398;2023-02-01T07:30:01;1.90;;;1.63;;
50126;SDS011;36024;47.974;16.398;2023-02-01T07:32:29;1.87;;;1.77;;
50126;SDS011;36024;47.974;16.398;2023-02-01T07:34:56;2.00;;;1.70;;
50126;SDS011;36024;47.974;16.398;2023-02-01T07:37:24;2.00;;;1.70;;
50126;SDS011;36024;47.974;16.398;2023-02-01T07:39:53;2.17;;;1.60;;
50126;SDS011;36024;47.974;16.398;2023-02-01T07:42:20;2.30;;;1.90;;
50126;SDS011;36024;47.974;16.398;2023-02-01T07:44:46;2.57;;;1.90;;
50126;SDS011;36024;47.974;16.398;2023-02-01T07:47:13;2.03;;;1.80;;
50126;SDS011;36024;47.974;16.398;2023-02-01T07:49:40;2.13;;;1.93;;
50126;SDS011;36024;47.974;16.398;2023-02-01T07:52:07;2.10;;;1.90;;
50126;SDS011;36024;47.974;16.398;2023-02-01T07:54:34;2.53;;;2.10;;
50126;SDS011;36024;47.974;16.398;2023-02-01T07:57:02;2.30;;;2.10;;
50126;SDS011;36024;47.974;16.398;2023-02-01T07:59:29;4.67;;;2.43;;
50126;SDS011;36024;47.974;16.398;2023-02-01T08:01:56;2.27;;;1.90;;
50126;SDS011;36024;47.974;16.398;2023-02-01T08:04:23;2.33;;;2.13;;
50126;SDS011;36024;47.974;16.398;2023-02-01T08:06:51;2.70;;;2.00;;
50126;SDS011;36024;47.974;16.398;2023-02-01T08:09:18;3.17;;;2.27;;
50126;SDS011;36024;47.974;16.398;2023-02-01T08:11:44;2.70;;;1.77;;
50126;SDS011;36024;47.974;16.398;2023-02-01T08:14:11;2.97;;;2.27;;
50126;SDS011;36024;47.974;16.398;2023-02-01T08:16:38;2.40;;;1.87;;
50126;SDS011;36024;47.974;16.398;2023-02-01T08:19:06;2.17;;;1.63;;
50126;SDS011;36024;47.974;16.398;2023-02-01T08:21:32;2.30;;;1.77;;
50126;SDS011;36024;47.974;16.398;2023-02-01T08:24:06;1.93;;;1.80;;
50126;SDS011;36024;47.974;16.398;2023-02-01T08:26:34;2.40;;;1.90;;
50126;SDS011;36024;47.974;16.398;2023-02-01T08:29:02;2.40;;;1.93;;
50126;SDS011;36024;47.974;16.398;2023-02-01T08:31:30;2.90;;;1.83;;
50126;SDS011;36024;47.974;16.398;2023-02-01T08:33:58;3.47;;;2.20;;
50126;SDS011;36024;47.974;16.398;2023-02-01T08:36:27;2.37;;;1.97;;
50126;SDS011;36024;47.974;16.398;2023-02-01T08:38:56;2.93;;;1.90;;
50126;SDS011;36024;47.974;16.398;2023-02-01T08:41:24;2.20;;;2.00;;
50126;SDS011;36024;47.974;16.398;2023-02-01T08:43:52;2.43;;;1.90;;
50126;SDS011;36024;47.974;16.398;2023-02-01T08:46:21;2.57;;;2.37;;
50126;SDS011;36024;47.974;16.398;2023-02-01T08:48:49;2.80;;;2.20;;
50126;SDS011;36024;47.974;16.398;2023-02-01T08:51:17;1.80;;;1.70;;
50126;SDS011;36024;47.974;16.398;2023-02-01T08:53:46;3.43;;;2.27;;
50126;SDS011;36024;47.974;16.398;2023-02-01T08:56:14;3.23;;;2.87;;
50126;SDS011;36024;47.974;16.398;2023-02-01T08:58:42;3.87;;;2.90;;
50126;SDS011;36024;47.974;16.398;2023-02-01T09:01:10;3.53;;;3.10;;
50126;SDS011;36024;47.974;16.398;2023-02-01T09:03:39;2.90;;;2.60;;
50126;SDS011;36024;47.974;16.398;2023-02-01T09:06:07;2.10;;;1.90;;
50126;SDS011;36024;47.974;16.398;2023-02-01T09:08:36;1.70;;;1.60;;
50126;SDS011;36024;47.974;16.398;2023-02-01T09:11:05;1.90;;;1.40;;
50126;SDS011;36024;47.974;16.398;2023-02-01T09:13:33;3.37;;;1.40;;
50126;SDS011;36024;47.974;16.398;2023-02-01T09:16:02;1.50;;;1.40;;
50126;SDS011;36024;47.974;16.398;2023-02-01T09:18:30;2.67;;;1.53;;
50126;SDS011;36024;47.974;16.398;2023-02-01T09:20:57;1.57;;;1.43;;
50126;SDS011;36024;47.974;16.398;2023-02-01T09:23:24;1.90;;;1.50;;
50126;SDS011;36024;47.974;16.398;2023-02-01T09:25:51;2.00;;;1.67;;
50126;SDS011;36024;47.974;16.398;2023-02-01T09:28:19;1.50;;;1.40;;
50126;SDS011;36024;47.974;16.398;2023-02-01T09:30:46;1.83;;;1.50;;
50126;SDS011;36024;47.974;16.398;2023-02-01T09:33:13;2.67;;;1.40;;
50126;SDS011;36024;47.974;16.398;2023-02-01T09:35:40;1.80;;;1.67;;
50126;SDS011;36024;47.974;16.398;2023-02-01T09:38:07;1.60;;;1.43;;
50126;SDS011;36024;47.974;16.398;2023-02-01T09:40:35;2.30;;;1.40;;
50126;SDS011;36024;47.974;16.398;2023-02-01T09:46:31;1.93;;;1.50;;
50126;SDS011;36024;47.974;16.398;2023-02-01T09:49:01;2.40;;;1.50;;
50126;SDS011;36024;47.974;16.398;2023-02-01T09:51:36;1.17;;;1.07;;
50126;SDS011;36024;47.974;16.398;2023-02-01T09:56:35;1.53;;;1.43;;
50126;SDS011;36024;47.974;16.398;2023-02-01T09:59:15;1.17;;;1.07;;
50126;SDS011;36024;47.974;16.398;2023-02-01T10:01:53;1.17;;;1.00;;
50126;SDS011;36024;47.974;16.398;2023-02-01T10:04:20;1.10;;;1.00;;
50126;SDS011;36024;47.974;16.398;2023-02-01T10:14:51;2.03;;;1.10;;
50126;SDS011;36024;47.974;16.398;2023-02-01T10:18:00;0.80;;;0.80;;
50126;SDS011;36024;47.974;16.398;2023-02-01T10:26:10;1.87;;;0.93;;
50126;SDS011;36024;47.974;16.398;2023-02-01T10:28:45;0.80;;;0.80;;
50126;SDS011;36024;47.974;16.398;2023-02-01T10:31:15;1.13;;;0.90;;
50126;SDS011;36024;47.974;16.398;2023-02-01T10:33:44;1.00;;;0.87;;
50126;SDS011;36024;47.974;16.398;2023-02-01T10:36:19;2.13;;;1.00;;
50126;SDS011;36024;47.974;16.398;2023-02-01T10:38:50;0.67;;;0.67;;
50126;SDS011;36024;47.974;16.398;2023-02-01T10:41:21;2.90;;;1.00;;
50126;SDS011;36024;47.974;16.398;2023-02-01T10:43:52;1.50;;;0.90;;
50126;SDS011;36024;47.974;16.398;2023-02-01T10:46:26;1.00;;;0.87;;
50126;SDS011;36024;47.974;16.398;2023-02-01T10:48:54;1.20;;;0.90;;
50126;SDS011;36024;47.974;16.398;2023-02-01T10:51:24;1.57;;;1.00;;
50126;SDS011;36024;47.974;16.398;2023-02-01T10:54:00;1.63;;;0.90;;
50126;SDS011;36024;47.974;16.398;2023-02-01T10:56:30;2.03;;;1.20;;
50126;SDS011;36024;47.974;16.398;2023-02-01T10:59:02;1.63;;;1.10;;
50126;SDS011;36024;47.974;16.398;2023-02-01T11:01:33;0.77;;;0.77;;
50126;SDS011;36024;47.974;16.398;2023-02-01T11:04:10;1.37;;;0.80;;
50126;SDS011;36024;47.974;16.398;2023-02-01T11:06:40;1.10;;;1.00;;
50126;SDS011;36024;47.974;16.398;2023-02-01T11:09:23;3.07;;;0.80;;
50126;SDS011;36024;47.974;16.398;2023-02-01T11:14:39;0.80;;;0.80;;
50126;SDS011;36024;47.974;16.398;2023-02-01T11:19:44;1.23;;;0.83;;
50126;SDS011;36024;47.974;16.398;2023-02-01T11:22:12;1.10;;;0.97;;
50126;SDS011;36024;47.974;16.398;2023-02-01T11:24:40;1.57;;;1.00;;
50126;SDS011;36024;47.974;16.398;2023-02-01T11:27:12;1.63;;;1.00;;
50126;SDS011;36024;47.974;16.398;2023-02-01T11:29:53;1.30;;;0.90;;
50126;SDS011;36024;47.974;16.398;2023-02-01T11:32:25;1.27;;;1.00;;
50126;SDS011;36024;47.974;16.398;2023-02-01T11:34:55;1.20;;;1.00;;
50126;SDS011;36024;47.974;16.398;2023-02-01T11:37:27;1.03;;;0.93;;
50126;SDS011;36024;47.974;16.398;2023-02-01T11:39:57;2.20;;;1.27;;
50126;SDS011;36024;47.974;16.398;2023-02-01T11:42:25;1.30;;;1.20;;
50126;SDS011;36024;47.974;16.398;2023-02-01T11:45:07;2.20;;;1.07;;
50126;SDS011;36024;47.974;16.398;2023-02-01T11:47:53;1.50;;;1.30;;
50126;SDS011;36024;47.974;16.398;2023-02-01T11:50:34;1.30;;;0.90;;
50126;SDS011;36024;47.974;16.398;2023-02-01T11:53:06;1.90;;;1.00;;
50126;SDS011;36024;47.974;16.398;2023-02-01T12:01:42;1.93;;;1.20;;
50126;SDS011;36024;47.974;16.398;2023-02-01T12:04:28;1.43;;;1.00;;
50126;SDS011;36024;47.974;16.398;2023-02-01T12:10:23;1.30;;;1.20;;
50126;SDS011;36024;47.974;16.398;2023-02-01T12:21:21;2.63;;;1.00;;
50126;SDS011;36024;47.974;16.398;2023-02-01T12:24:12;2.20;;;1.00;;
50126;SDS011;36024;47.974;16.398;2023-02-01T12:38:06;5.43;;;1.03;;
50126;SDS011;36024;47.974;16.398;2023-02-01T12:46:04;2.37;;;1.10;;
50126;SDS011;36024;47.974;16.398;2023-02-01T12:48:38;1.90;;;0.90;;
50126;SDS011;36024;47.974;16.398;2023-02-01T12:51:16;1.63;;;0.90;;
50126;SDS011;36024;47.974;16.398;2023-02-01T12:53:47;1.00;;;0.70;;
50126;SDS011;36024;47.974;16.398;2023-02-01T12:56:22;1.40;;;0.83;;
50126;SDS011;36024;47.974;16.398;2023-02-01T12:58:53;1.47;;;0.80;;
50126;SDS011;36024;47.974;16.398;2023-02-01T13:01:24;0.87;;;0.60;;
50126;SDS011;36024;47.974;16.398;2023-02-01T13:11:47;2.17;;;0.80;;
50126;SDS011;36024;47.974;16.398;2023-02-01T13:16:57;1.47;;;0.90;;
50126;SDS011;36024;47.974;16.398;2023-02-01T13:19:28;1.50;;;1.00;;
50126;SDS011;36024;47.974;16.398;2023-02-01T13:22:02;2.47;;;0.90;;
50126;SDS011;36024;47.974;16.398;2023-02-01T13:24:36;1.43;;;0.67;;
50126;SDS011;36024;47.974;16.398;2023-02-01T13:27:12;1.20;;;0.80;;
50126;SDS011;36024;47.974;16.398;2023-02-01T13:29:59;1.57;;;0.83;;
50126;SDS011;36024;47.974;16.398;2023-02-01T13:39:08;1.13;;;1.00;;
50126;SDS011;36024;47.974;16.398;2023-02-01T13:41:51;1.07;;;0.90;;
50126;SDS011;36024;47.974;16.398;2023-02-01T13:44:24;2.03;;;1.10;;
50126;SDS011;36024;47.974;16.398;2023-02-01T13:46:55;2.17;;;1.10;;
50126;SDS011;36024;47.974;16.398;2023-02-01T13:49:25;1.60;;;1.10;;
50126;SDS011;36024;47.974;16.398;2023-02-01T13:51:57;2.20;;;1.10;;
50126;SDS011;36024;47.974;16.398;2023-02-01T13:57:03;1.70;;;1.07;;
50126;SDS011;36024;47.974;16.398;2023-02-01T14:05:12;3.07;;;1.30;;
50126;SDS011;36024;47.974;16.398;2023-02-01T14:10:50;0.93;;;0.60;;
50126;SDS011;36024;47.974;16.398;2023-02-01T14:24:04;1.47;;;0.40;;
50126;SDS011;36024;47.974;16.398;2023-02-01T14:26:44;0.93;;;0.40;;
50126;SDS011;36024;47.974;16.398;2023-02-01T14:32:02;0.40;;;0.40;;
50126;SDS011;36024;47.974;16.398;2023-02-01T14:36:59;1.00;;;0.70;;
50126;SDS011;36024;47.974;16.398;2023-02-01T14:45:42;0.80;;;0.60;;
50126;SDS011;36024;47.974;16.398;2023-02-01T14:47:46;0.77;;;0.50;;
50126;SDS011;36024;47.974;16.398;2023-02-01T14:50:18;0.77;;;0.43;;
50126;SDS011;36024;47.974;16.398;2023-02-01T14:55:50;0.93;;;0.70;;
50126;SDS011;36024;47.974;16.398;2023-02-01T14:58:27;1.30;;;1.20;;
50126;SDS011;36024;47.974;16.398;2023-02-01T15:00:57;2.03;;;1.20;;
50126;SDS011;36024;47.974;16.398;2023-02-01T15:03:31;0.80;;;0.80;;
50126;SDS011;36024;47.974;16.398;2023-02-01T15:06:03;0.70;;;0.70;;
50126;SDS011;36024;47.974;16.398;2023-02-01T15:08:36;1.83;;;0.90;;
50126;SDS011;36024;47.974;16.398;2023-02-01T15:11:06;2.57;;;0.90;;
50126;SDS011;36024;47.974;16.398;2023-02-01T15:13:37;1.40;;;0.80;;
50126;SDS011;36024;47.974;16.398;2023-02-01T15:16:11;0.87;;;0.83;;
50126;SDS011;36024;47.974;16.398;2023-02-01T15:18:39;1.70;;;1.17;;
50126;SDS011;36024;47.974;16.398;2023-02-01T15:21:13;2.33;;;1.00;;
50126;SDS011;36024;47.974;16.398;2023-02-01T15:24:09;1.90;;;1.13;;
50126;SDS011;36024;47.974;16.398;2023-02-01T15:26:37;1.83;;;1.23;;
50126;SDS011;36024;47.974;16.398;2023-02-01T15:29:04;2.60;;;1.90;;
50126;SDS011;36024;47.974;16.398;2023-02-01T15:31:36;3.30;;;2.30;;
50126;SDS011;36024;47.974;16.398;2023-02-01T15:34:04;2.77;;;1.30;;
50126;SDS011;36024;47.974;16.398;2023-02-01T15:36:31;2.83;;;1.50;;
50126;SDS011;36024;47.974;16.398;2023-02-01T15:42:08;1.70;;;1.10;;
50126;SDS011;36024;47.974;16.398;2023-02-01T15:44:38;3.30;;;1.23;;
50126;SDS011;36024;47.974;16.398;2023-02-01T15:47:15;3.07;;;1.70;;
50126;SDS011;36024;47.974;16.398;2023-02-01T15:49:44;3.03;;;1.17;;
50126;SDS011;36024;47.974;16.398;2023-02-01T15:52:26;1.37;;;1.03;;
50126;SDS011;36024;47.974;16.398;2023-02-01T15:55:00;3.03;;;2.07;;
50126;SDS011;36024;47.974;16.398;2023-02-01T15:57:33;2.50;;;1.20;;
50126;SDS011;36024;47.974;16.398;2023-02-01T16:02:56;2.63;;;1.80;;
50126;SDS011;36024;47.974;16.398;2023-02-01T16:05:35;5.33;;;2.47;;
50126;SDS011;36024;47.974;16.398;2023-02-01T16:08:13;3.07;;;1.90;;
50126;SDS011;36024;47.974;16.398;2023-02-01T16:10:46;5.17;;;2.20;;
50126;SDS011;36024;47.974;16.398;2023-02-01T16:13:15;4.87;;;3.60;;
50126;SDS011;36024;47.974;16.398;2023-02-01T16:15:42;4.80;;;3.20;;
50126;SDS011;36024;47.974;16.398;2023-02-01T16:18:10;7.47;;;4.73;;
50126;SDS011;36024;47.974;16.398;2023-02-01T16:20:38;7.70;;;4.63;;
50126;SDS011;36024;47.974;16.398;2023-02-01T16:23:06;4.13;;;3.70;;
50126;SDS011;36024;47.974;16.398;2023-02-01T16:25:33;12.70;;;10.27;;
50126;SDS011;36024;47.974;16.398;2023-02-01T16:28:00;10.37;;;3.57;;
50126;SDS011;36024;47.974;16.398;2023-02-01T16:30:27;4.27;;;3.30;;
50126;SDS011;36024;47.974;16.398;2023-02-01T16:32:54;7.13;;;6.43;;
50126;SDS011;36024;47.974;16.398;2023-02-01T16:35:23;4.40;;;3.10;;
50126;SDS011;36024;47.974;16.398;2023-02-01T16:37:52;13.73;;;12.07;;
50126;SDS011;36024;47.974;16.398;2023-02-01T16:40:20;15.27;;;13.73;;
50126;SDS011;36024;47.974;16.398;2023-02-01T16:42:49;4.23;;;2.67;;
50126;SDS011;36024;47.974;16.398;2023-02-01T16:45:17;6.70;;;4.60;;
50126;SDS011;36024;47.974;16.398;2023-02-01T16:47:48;4.87;;;2.20;;
50126;SDS011;36024;47.974;16.398;2023-02-01T16:50:18;3.83;;;2.00;;
50126;SDS011;36024;47.974;16.398;2023-02-01T16:52:49;3.73;;;1.80;;
50126;SDS011;36024;47.974;16.398;2023-02-01T16:55:16;4.10;;;2.00;;
50126;SDS011;36024;47.974;16.398;2023-02-01T16:57:44;2.10;;;1.53;;
50126;SDS011;36024;47.974;16.398;2023-02-01T17:00:11;4.63;;;2.17;;
50126;SDS011;36024;47.974;16.398;2023-02-01T17:02:50;2.60;;;1.40;;
50126;SDS011;36024;47.974;16.398;2023-02-01T17:05:17;2.63;;;1.50;;
50126;SDS011;36024;47.974;16.398;2023-02-01T17:07:44;2.87;;;1.83;;
50126;SDS011;36024;47.974;16.398;2023-02-01T17:10:17;3.70;;;1.50;;
50126;SDS011;36024;47.974;16.398;2023-02-01T17:12:58;4.00;;;1.90;;
50126;SDS011;36024;47.974;16.398;2023-02-01T17:15:26;2.90;;;1.60;;
50126;SDS011;36024;47.974;16.398;2023-02-01T17:17:56;3.87;;;1.67;;
50126;SDS011;36024;47.974;16.398;2023-02-01T17:20:24;2.37;;;1.70;;
50126;SDS011;36024;47.974;16.398;2023-02-01T17:22:53;5.53;;;1.93;;